Terminal Aerodrome Forecast
Issued by NWS

Home | Current Version | Previous Version | Text Only | Print | Product List | Glossary On
Versions: 1 2 3 4 5 6 7 8 9 10 11 12 13 14 15 16
000
FTUS43 KDDC 270520
TAFHYS
TAF
KHYS 270520Z 2706/2806 06003KT P6SM SCT250
     FM272200 13019KT P6SM VCSH OVC020
     FM280200 10012KT 4SM RA BR OVC008
     FM280300 10009KT 4SM RA BR OVC003=

USA.gov is the U.S. government's official web portal to all federal, state and local government web resources and services.